Time;durP1;ratioP1;P1;durP2;ratioP2;P2;SDS_P1;SDS_P2;PMS_P1;PMS_P2;Temp;Humidity;BMP_temperature;BMP_pressure;BME280_temperature;BME280_humidity;BME280_pressure;Samples;Min_cycle;Max_cycle;Signal;HPM_P1;HPM_P2
2022/08/09 00:02:06;;;;;;;10.38;5.93;;;13.60;99.90;;;;;;5099701;28;20040;-65
2022/08/09 00:04:32;;;;;;;6.57;4.97;;;13.60;99.90;;;;;;5098802;28;20086;-65
2022/08/09 00:06:59;;;;;;;8.90;5.72;;;13.70;99.90;;;;;;5093554;28;20036;-65
2022/08/09 00:09:24;;;;;;;6.97;5.75;;;13.70;99.90;;;;;;5096995;28;20432;-65
2022/08/09 00:11:50;;;;;;;7.30;5.68;;;13.70;99.90;;;;;;5099671;28;20048;-65
2022/08/09 00:14:17;;;;;;;11.98;5.60;;;13.70;99.90;;;;;;5081031;28;20107;-65
2022/08/09 00:16:43;;;;;;;6.88;5.03;;;13.60;99.90;;;;;;5096036;28;20048;-65
2022/08/09 00:19:08;;;;;;;7.43;5.20;;;13.40;99.90;;;;;;5098506;28;20076;-65
2022/08/09 00:21:35;;;;;;;8.68;5.22;;;13.40;99.90;;;;;;5100422;28;20205;-65
2022/08/09 00:24:01;;;;;;;9.45;6.00;;;13.30;99.90;;;;;;5094965;28;20048;-65
2022/08/09 00:26:28;;;;;;;8.57;6.25;;;13.20;99.90;;;;;;5082280;28;20536;-65
2022/08/09 00:28:54;;;;;;;10.90;8.02;;;13.10;99.90;;;;;;5095339;28;20082;-65
2022/08/09 00:31:21;;;;;;;8.43;6.57;;;13.10;99.90;;;;;;5104732;28;20071;-65
2022/08/09 00:33:49;;;;;;;13.00;7.43;;;13.10;99.90;;;;;;5102370;28;20040;-65
2022/08/09 00:36:15;;;;;;;12.30;8.88;;;13.00;99.90;;;;;;5097157;28;20077;-65
2022/08/09 00:38:40;;;;;;;14.85;10.52;;;13.00;99.90;;;;;;5099037;28;20040;-65
2022/08/09 00:41:06;;;;;;;10.70;7.85;;;13.00;99.90;;;;;;5096866;28;20062;-65
2022/08/09 00:43:35;;;;;;;13.20;8.57;;;13.00;99.90;;;;;;5101766;28;20042;-65
2022/08/09 00:46:03;;;;;;;12.50;7.93;;;13.10;99.90;;;;;;5104125;28;20108;-65
2022/08/09 00:48:28;;;;;;;8.27;5.75;;;13.00;99.90;;;;;;5101614;28;20052;-65
2022/08/09 00:50:54;;;;;;;8.90;5.68;;;12.90;99.90;;;;;;5101318;28;20046;-65
2022/08/09 00:53:21;;;;;;;9.80;7.13;;;12.80;99.90;;;;;;5100610;28;20083;-65
2022/08/09 00:55:47;;;;;;;17.20;8.52;;;12.70;99.90;;;;;;5089599;28;20103;-65
2022/08/09 00:58:12;;;;;;;12.48;8.70;;;12.60;99.90;;;;;;5104113;28;20046;-65
2022/08/09 01:00:40;;;;;;;15.00;12.57;;;12.60;99.90;;;;;;5103042;28;20077;-65
2022/08/09 01:03:18;;;;;;;11.57;8.07;;;12.60;99.90;;;;;;5099087;28;20052;-65
2022/08/09 01:06:00;;;;;;;13.13;8.35;;;12.70;99.90;;;;;;5097754;28;20049;-65
2022/08/09 01:08:49;;;;;;;16.42;10.10;;;12.80;99.90;;;;;;5093922;28;20530;-65
2022/08/09 01:11:30;;;;;;;15.25;9.68;;;12.70;99.90;;;;;;5098737;28;20048;-65
2022/08/09 01:14:10;;;;;;;12.38;8.95;;;12.70;99.90;;;;;;5096345;28;20048;-65
2022/08/09 01:16:41;;;;;;;10.90;7.85;;;12.50;99.90;;;;;;5104169;28;20040;-65
2022/08/09 01:19:26;;;;;;;14.65;10.43;;;12.50;99.90;;;;;;5103987;28;20061;-65
2022/08/09 01:22:25;;;;;;;19.73;13.45;;;12.50;99.90;;;;;;5103198;28;20090;-65
2022/08/09 01:25:38;;;;;;;19.15;13.23;;;12.60;99.90;;;;;;5096805;28;20047;-65
2022/08/09 01:28:05;;;;;;;23.25;10.50;;;12.50;99.90;;;;;;5088551;28;20070;-65
2022/08/09 01:30:35;;;;;;;13.65;10.32;;;12.50;99.90;;;;;;5099380;28;20054;-65
2022/08/09 01:33:02;;;;;;;17.02;13.88;;;12.40;99.90;;;;;;5098987;28;20058;-65
2022/08/09 01:35:44;;;;;;;12.38;11.13;;;12.20;99.90;;;;;;5077601;28;20059;-65
2022/08/09 01:38:14;;;;;;;18.83;15.35;;;12.20;99.90;;;;;;5097455;28;20392;-65
2022/08/09 01:41:01;;;;;;;20.23;14.23;;;12.20;99.90;;;;;;5092107;28;20052;-65
2022/08/09 01:43:30;;;;;;;31.80;16.95;;;12.20;99.90;;;;;;5097574;28;20056;-65
2022/08/09 01:45:56;;;;;;;92.40;18.08;;;12.20;99.90;;;;;;5099748;28;20101;-65
2022/08/09 01:48:23;;;;;;;119.90;13.20;;;12.10;99.90;;;;;;5094748;28;20036;-65
2022/08/09 01:50:51;;;;;;;61.33;18.13;;;12.10;99.90;;;;;;5100292;28;20055;-65
2022/08/09 01:53:18;;;;;;;21.20;17.30;;;12.10;99.90;;;;;;5100263;28;20074;-65
2022/08/09 01:55:45;;;;;;;37.88;16.05;;;12.10;99.90;;;;;;5095307;28;20065;-65
2022/08/09 01:58:13;;;;;;;20.58;17.08;;;12.10;99.90;;;;;;5091987;28;20107;-65
2022/08/09 02:00:42;;;;;;;15.93;13.63;;;12.00;99.90;;;;;;5096794;28;20044;-65
2022/08/09 02:03:08;;;;;;;20.65;15.20;;;12.00;99.90;;;;;;5100937;28;20048;-65
2022/08/09 02:05:36;;;;;;;16.63;13.00;;;12.00;99.90;;;;;;5092474;28;20044;-65
2022/08/09 02:08:06;;;;;;;17.00;12.57;;;11.90;99.90;;;;;;5094847;28;20047;-65
2022/08/09 02:10:36;;;;;;;18.67;15.20;;;12.00;99.90;;;;;;5101336;28;20040;-65
2022/08/09 02:13:04;;;;;;;;;;;12.00;99.90;;;;;;5095814;28;20050;-65
2022/08/09 02:15:34;;;;;;;21.88;16.15;;;11.90;99.90;;;;;;5101134;28;19924;-65
2022/08/09 02:18:00;;;;;;;21.08;16.98;;;12.00;99.90;;;;;;5102087;28;20051;-65
2022/08/09 02:20:28;;;;;;;20.40;15.85;;;12.00;99.90;;;;;;5099178;28;20070;-65
2022/08/09 02:23:12;;;;;;;19.58;15.75;;;12.00;99.90;;;;;;5102419;28;20125;-65
2022/08/09 02:25:40;;;;;;;19.73;14.73;;;12.00;99.90;;;;;;5095039;28;20094;-65
2022/08/09 02:28:11;;;;;;;23.75;18.15;;;12.00;99.90;;;;;;5102098;28;20135;-65
2022/08/09 02:30:46;;;;;;;22.38;18.02;;;12.00;99.90;;;;;;5107186;28;20135;-65
2022/08/09 02:33:18;;;;;;;20.30;16.25;;;12.00;99.90;;;;;;5103848;28;20091;-65
2022/08/09 02:35:46;;;;;;;21.83;17.05;;;12.00;99.90;;;;;;5098908;28;20152;-65
2022/08/09 02:38:15;;;;;;;22.95;17.17;;;12.00;99.90;;;;;;5102865;28;20040;-65
2022/08/09 02:40:42;;;;;;;21.25;14.73;;;12.00;99.90;;;;;;5104028;28;20052;-65
2022/08/09 02:43:10;;;;;;;20.70;14.77;;;12.00;99.90;;;;;;5101847;28;20048;-65
2022/08/09 02:45:41;;;;;;;18.30;14.45;;;12.00;99.90;;;;;;5100717;28;20523;-65
2022/08/09 02:48:12;;;;;;;20.42;16.67;;;12.00;99.90;;;;;;5098671;28;20055;-65
2022/08/09 02:50:46;;;;;;;19.08;15.95;;;12.00;99.90;;;;;;5100046;28;20127;-65
2022/08/09 02:53:32;;;;;;;24.55;15.90;;;12.00;99.90;;;;;;5096631;28;20080;-65
2022/08/09 02:55:59;;;;;;;32.03;17.23;;;11.80;99.90;;;;;;5104007;28;20052;-65
2022/08/09 02:58:28;;;;;;;29.52;19.67;;;11.70;99.90;;;;;;5107035;28;20509;-65
2022/08/09 03:00:55;;;;;;;14.00;12.00;;;11.70;99.90;;;;;;5104043;28;20040;-65
2022/08/09 03:03:22;;;;;;;14.70;11.18;;;11.70;99.90;;;;;;5102364;28;20305;-65
2022/08/09 03:05:50;;;;;;;14.88;11.95;;;11.80;99.90;;;;;;5099873;28;20072;-65
2022/08/09 03:08:17;;;;;;;19.13;14.05;;;11.80;99.90;;;;;;5103579;28;20071;-65
2022/08/09 03:10:45;;;;;;;23.15;14.57;;;11.80;99.90;;;;;;5105912;28;20474;-65
2022/08/09 03:13:13;;;;;;;24.15;17.02;;;11.80;99.90;;;;;;5101368;28;20047;-65
2022/08/09 03:15:40;;;;;;;22.10;17.48;;;11.80;99.90;;;;;;5101596;28;20056;-65
2022/08/09 03:18:07;;;;;;;22.13;18.52;;;11.80;99.90;;;;;;5101584;28;20166;-65
2022/08/09 03:20:33;;;;;;;23.02;15.95;;;11.80;99.90;;;;;;5101860;28;20048;-65
2022/08/09 03:22:59;;;;;;;23.23;16.83;;;11.80;99.90;;;;;;5099765;28;20499;-65
2022/08/09 03:25:27;;;;;;;20.70;16.00;;;11.70;99.90;;;;;;5106532;28;20044;-65
2022/08/09 03:27:54;;;;;;;23.73;17.25;;;11.70;99.90;;;;;;5104304;28;20047;-65
2022/08/09 03:30:20;;;;;;;18.95;14.57;;;11.70;99.90;;;;;;5096264;28;20048;-65
2022/08/09 03:32:48;;;;;;;28.25;14.73;;;11.70;99.90;;;;;;5102441;28;20047;-65
2022/08/09 03:35:14;;;;;;;19.80;13.05;;;11.70;99.90;;;;;;5097625;28;20056;-65
2022/08/09 03:37:40;;;;;;;16.58;13.05;;;11.70;99.90;;;;;;5095727;28;20040;-65
2022/08/09 03:40:07;;;;;;;15.98;10.77;;;11.70;99.90;;;;;;5096449;28;20036;-65
2022/08/09 03:42:33;;;;;;;15.55;11.48;;;11.60;99.90;;;;;;5100957;28;20058;-65
2022/08/09 03:44:59;;;;;;;24.45;13.25;;;11.50;99.90;;;;;;5100647;28;20119;-65
2022/08/09 03:47:25;;;;;;;21.25;10.73;;;11.50;99.90;;;;;;5100885;28;20045;-65
2022/08/09 03:49:51;;;;;;;27.27;7.57;;;11.50;99.90;;;;;;5106282;28;20051;-65
2022/08/09 03:52:18;;;;;;;22.23;9.93;;;11.50;99.90;;;;;;5090931;28;20048;-65
2022/08/09 03:54:46;;;;;;;30.38;11.60;;;11.50;99.90;;;;;;5104933;28;20392;-65
2022/08/09 03:57:13;;;;;;;38.65;9.30;;;11.50;99.90;;;;;;5103879;28;20100;-65
2022/08/09 03:59:40;;;;;;;54.17;13.27;;;11.50;99.90;;;;;;5105686;28;20048;-65
2022/08/09 04:02:06;;;;;;;36.78;8.63;;;11.50;99.90;;;;;;5098083;28;20046;-65
2022/08/09 04:04:33;;;;;;;75.93;10.32;;;11.50;99.90;;;;;;5099276;28;20052;-65
2022/08/09 04:06:59;;;;;;;43.00;9.65;;;11.60;99.90;;;;;;5095685;28;20123;-65
2022/08/09 04:09:25;;;;;;;29.02;8.23;;;11.70;99.90;;;;;;5102153;28;20047;-65
2022/08/09 04:12:40;;;;;;;13.00;7.85;;;11.80;99.90;;;;;;5101379;28;20044;-65
2022/08/09 04:15:07;;;;;;;19.33;8.57;;;11.90;99.90;;;;;;5098033;28;20067;-65
2022/08/09 04:17:32;;;;;;;22.92;8.68;;;11.90;99.90;;;;;;5091360;28;20107;-65
2022/08/09 04:19:58;;;;;;;24.10;8.25;;;12.00;99.90;;;;;;5088476;28;20067;-65
2022/08/09 04:22:24;;;;;;;34.33;8.70;;;12.00;99.90;;;;;;5103917;28;20526;-65
2022/08/09 04:24:49;;;;;;;45.47;9.82;;;11.90;99.90;;;;;;5100701;28;20453;-65
2022/08/09 04:27:15;;;;;;;32.50;10.23;;;11.90;99.90;;;;;;5102717;28;20051;-65
2022/08/09 04:29:41;;;;;;;11.93;7.18;;;11.80;99.90;;;;;;5104975;28;20095;-65
2022/08/09 04:32:06;;;;;;;14.75;7.63;;;11.90;99.90;;;;;;5091948;28;20044;-65
2022/08/09 04:34:33;;;;;;;9.02;6.95;;;12.00;99.90;;;;;;5102492;28;20048;-65
2022/08/09 04:37:00;;;;;;;19.92;6.78;;;12.10;99.90;;;;;;5085529;28;20053;-65
2022/08/09 04:39:25;;;;;;;11.25;5.40;;;12.20;99.90;;;;;;5091119;28;20390;-65
2022/08/09 04:41:51;;;;;;;8.73;5.35;;;12.30;99.90;;;;;;5100575;28;20051;-65
2022/08/09 04:44:17;;;;;;;8.43;4.40;;;12.40;99.90;;;;;;5099550;28;20059;-65
2022/08/09 04:46:43;;;;;;;16.35;5.47;;;12.50;99.90;;;;;;5093064;28;20040;-65
2022/08/09 04:49:08;;;;;;;14.13;5.03;;;12.60;99.90;;;;;;5100363;28;20510;-65
2022/08/09 04:51:34;;;;;;;25.05;5.20;;;12.60;99.90;;;;;;5100287;28;20110;-65
2022/08/09 04:54:00;;;;;;;16.23;5.15;;;12.60;99.90;;;;;;5102100;28;20047;-65
2022/08/09 04:56:26;;;;;;;10.27;4.43;;;12.60;99.90;;;;;;5094040;28;20047;-65
2022/08/09 04:58:52;;;;;;;6.75;4.18;;;12.70;99.90;;;;;;5103389;28;20032;-65
2022/08/09 05:01:18;;;;;;;6.45;4.22;;;12.70;99.90;;;;;;5100774;28;20051;-65
2022/08/09 05:03:44;;;;;;;8.45;4.80;;;12.80;99.90;;;;;;5102601;28;20048;-65
2022/08/09 05:06:11;;;;;;;8.13;4.93;;;12.80;99.90;;;;;;5092413;28;20048;-65
2022/08/09 05:08:37;;;;;;;10.23;4.50;;;12.80;99.90;;;;;;5103390;28;20047;-65
2022/08/09 05:11:03;;;;;;;11.05;4.72;;;12.90;99.90;;;;;;5100741;28;20055;-65
2022/08/09 05:13:29;;;;;;;6.30;4.75;;;12.90;99.90;;;;;;5102579;28;20095;-65
2022/08/09 05:15:55;;;;;;;6.80;4.65;;;13.00;99.90;;;;;;5087592;28;20059;-65
2022/08/09 05:18:20;;;;;;;6.13;3.95;;;13.00;99.90;;;;;;5091259;28;20052;-65
2022/08/09 05:20:46;;;;;;;6.40;4.53;;;13.10;99.90;;;;;;5085409;28;20099;-65
2022/08/09 05:23:12;;;;;;;4.95;4.00;;;13.10;99.90;;;;;;5103455;28;20040;-65
2022/08/09 05:25:38;;;;;;;5.75;3.55;;;13.20;99.90;;;;;;5097924;28;20040;-65
2022/08/09 05:28:04;;;;;;;6.10;3.85;;;13.20;99.90;;;;;;5100654;28;20063;-65
2022/08/09 05:30:30;;;;;;;4.93;3.85;;;13.20;99.90;;;;;;5103121;28;20043;-65
2022/08/09 05:32:56;;;;;;;4.72;3.50;;;13.30;99.90;;;;;;5088009;28;20559;-65
2022/08/09 05:35:22;;;;;;;4.25;3.72;;;13.30;99.90;;;;;;5103997;28;20066;-65
2022/08/09 05:37:47;;;;;;;4.45;3.35;;;13.40;99.90;;;;;;5102437;28;20036;-65
2022/08/09 05:40:14;;;;;;;3.90;3.38;;;13.40;99.90;;;;;;5103642;28;20051;-65
2022/08/09 05:42:40;;;;;;;4.43;3.97;;;13.40;99.90;;;;;;5101939;28;20080;-65
2022/08/09 05:45:06;;;;;;;4.38;3.63;;;13.50;99.90;;;;;;5092777;28;20051;-65
2022/08/09 05:47:32;;;;;;;4.82;3.47;;;13.50;99.90;;;;;;5098443;28;20109;-65
2022/08/09 05:49:58;;;;;;;3.90;3.50;;;13.50;99.90;;;;;;5078195;28;20048;-65
2022/08/09 05:52:24;;;;;;;6.43;3.97;;;13.60;99.90;;;;;;5098835;28;20043;-65
2022/08/09 05:54:50;;;;;;;6.45;4.18;;;13.60;99.90;;;;;;5098973;28;20040;-65
2022/08/09 05:57:16;;;;;;;5.97;4.00;;;13.70;99.90;;;;;;5104908;28;20104;-65
2022/08/09 05:59:42;;;;;;;8.95;4.43;;;13.80;99.90;;;;;;5104597;28;20052;-65
2022/08/09 06:02:08;;;;;;;7.93;4.85;;;13.80;99.90;;;;;;5106178;28;20408;-65
2022/08/09 06:04:35;;;;;;;8.95;5.20;;;13.90;99.90;;;;;;5105933;28;20059;-65
2022/08/09 06:07:02;;;;;;;7.28;5.38;;;13.90;99.90;;;;;;5102624;28;20047;-65
2022/08/09 06:09:28;;;;;;;9.05;5.78;;;14.00;99.90;;;;;;5095180;28;20032;-65
2022/08/09 06:11:54;;;;;;;9.85;5.53;;;14.10;99.90;;;;;;5066729;28;20130;-65
2022/08/09 06:14:19;;;;;;;8.07;6.30;;;14.10;99.90;;;;;;5103072;28;20040;-65
2022/08/09 06:16:45;;;;;;;10.77;7.47;;;14.20;99.90;;;;;;5105611;28;20048;-65
2022/08/09 06:19:13;;;;;;;9.05;7.05;;;14.30;99.90;;;;;;5105306;28;20051;-65
2022/08/09 06:21:40;;;;;;;11.88;7.45;;;14.30;99.90;;;;;;5104329;28;20063;-65
2022/08/09 06:24:06;;;;;;;8.95;6.50;;;14.40;99.90;;;;;;5094601;28;20131;-65
2022/08/09 06:26:33;;;;;;;10.80;7.55;;;14.50;99.90;;;;;;5098494;28;20139;-65
2022/08/09 06:28:59;;;;;;;10.32;6.63;;;14.60;99.90;;;;;;5105527;28;20099;-65
2022/08/09 06:31:25;;;;;;;15.68;8.07;;;14.70;99.90;;;;;;5105363;28;20070;-65
2022/08/09 06:33:50;;;;;;;10.98;7.30;;;14.70;99.90;;;;;;5099215;28;20123;-65
2022/08/09 06:36:16;;;;;;;10.65;6.72;;;14.80;99.90;;;;;;5106539;28;20040;-65
2022/08/09 06:38:43;;;;;;;11.50;7.85;;;14.90;99.90;;;;;;5101471;28;20051;-65
2022/08/09 06:41:08;;;;;;;12.80;8.88;;;15.00;99.90;;;;;;5100739;28;20062;-65
2022/08/09 06:43:35;;;;;;;15.82;8.35;;;15.00;99.90;;;;;;5103830;28;20044;-65
2022/08/09 06:46:01;;;;;;;12.32;8.07;;;15.10;99.90;;;;;;5095533;28;20052;-65
2022/08/09 06:48:26;;;;;;;12.55;8.77;;;15.20;99.90;;;;;;5088600;28;20051;-65
2022/08/09 06:50:52;;;;;;;14.93;9.55;;;15.30;99.90;;;;;;5106556;28;20048;-65
2022/08/09 06:53:18;;;;;;;14.05;8.43;;;15.40;99.90;;;;;;5102354;28;20507;-65
2022/08/09 06:55:44;;;;;;;14.02;8.07;;;15.50;99.90;;;;;;5101943;28;20055;-65
2022/08/09 06:58:09;;;;;;;13.43;7.53;;;15.60;99.90;;;;;;5096386;28;20087;-65
2022/08/09 07:00:36;;;;;;;13.38;7.35;;;15.60;99.90;;;;;;5095116;28;20071;-65
2022/08/09 07:03:02;;;;;;;12.43;7.00;;;15.70;99.90;;;;;;5095829;28;20036;-65
2022/08/09 07:05:28;;;;;;;9.93;6.00;;;15.90;99.90;;;;;;5095485;28;20043;-65
2022/08/09 07:07:54;;;;;;;10.68;6.38;;;16.00;99.90;;;;;;5099590;28;20098;-65
2022/08/09 07:10:21;;;;;;;9.98;5.70;;;16.10;99.90;;;;;;5105183;28;20044;-65
2022/08/09 07:12:48;;;;;;;8.50;5.60;;;16.20;99.90;;;;;;5105422;28;20036;-65
2022/08/09 07:15:14;;;;;;;8.60;4.25;;;16.20;99.90;;;;;;5103639;28;20404;-65
2022/08/09 07:17:39;;;;;;;7.38;3.80;;;16.30;99.90;;;;;;5104259;28;20043;-65
2022/08/09 07:20:06;;;;;;;8.32;4.82;;;16.40;99.90;;;;;;5096631;28;20040;-65
2022/08/09 07:22:31;;;;;;;6.05;3.78;;;16.40;99.90;;;;;;5104619;28;20051;-65
2022/08/09 07:24:57;;;;;;;7.57;4.13;;;16.50;99.90;;;;;;5102864;28;20048;-65
2022/08/09 07:27:24;;;;;;;7.88;4.07;;;16.60;99.90;;;;;;5097840;28;20104;-65
2022/08/09 07:29:50;;;;;;;7.75;4.07;;;16.70;99.90;;;;;;5101879;28;20056;-65
2022/08/09 07:32:16;;;;;;;6.63;3.55;;;16.80;99.90;;;;;;5092608;28;20053;-65
2022/08/09 07:34:41;;;;;;;9.68;4.38;;;16.90;99.90;;;;;;5087266;28;20499;-65
2022/08/09 07:37:07;;;;;;;6.95;3.30;;;16.90;99.90;;;;;;5103266;28;20048;-65
2022/08/09 07:39:33;;;;;;;7.45;3.95;;;17.00;99.90;;;;;;5101614;28;20128;-65
2022/08/09 07:41:58;;;;;;;7.88;3.83;;;17.10;99.90;;;;;;5094735;28;20040;-65
2022/08/09 07:44:24;;;;;;;4.38;3.50;;;17.20;99.90;;;;;;5096309;28;20492;-65
2022/08/09 07:46:50;;;;;;;5.47;2.83;;;17.30;99.90;;;;;;5073056;28;20033;-65
2022/08/09 07:49:15;;;;;;;7.22;3.05;;;17.40;99.90;;;;;;5097854;28;20090;-65
2022/08/09 07:51:41;;;;;;;5.05;2.97;;;17.60;99.90;;;;;;5098319;28;20055;-65
2022/08/09 07:54:07;;;;;;;6.07;2.80;;;17.70;99.90;;;;;;5103861;28;20082;-65
2022/08/09 07:56:33;;;;;;;4.30;2.55;;;17.90;99.90;;;;;;5085552;28;20060;-65
2022/08/09 07:58:59;;;;;;;5.65;2.78;;;18.00;99.90;;;;;;5085555;28;20073;-65
2022/08/09 08:01:24;;;;;;;4.15;2.20;;;18.10;99.90;;;;;;5096270;28;20047;-65
2022/08/09 08:03:50;;;;;;;4.20;2.30;;;18.40;99.90;;;;;;5094933;28;20048;-65
2022/08/09 08:06:16;;;;;;;5.53;2.75;;;18.50;99.90;;;;;;5097405;28;20076;-65
2022/08/09 08:08:41;;;;;;;4.25;2.22;;;18.60;99.90;;;;;;5102422;28;20042;-65
2022/08/09 08:11:07;;;;;;;3.60;2.50;;;18.60;99.90;;;;;;5100558;28;20070;-65
2022/08/09 08:13:33;;;;;;;4.43;2.13;;;18.60;99.90;;;;;;5105349;28;20084;-65
2022/08/09 08:15:58;;;;;;;3.88;2.38;;;18.60;99.90;;;;;;5103003;28;20264;-65
2022/08/09 08:18:24;;;;;;;3.65;2.25;;;18.50;99.90;;;;;;5104650;28;20054;-65
2022/08/09 08:20:50;;;;;;;5.95;2.63;;;18.60;99.90;;;;;;5103311;28;20043;-65
2022/08/09 08:23:19;;;;;;;3.83;2.38;;;18.60;99.90;;;;;;5099138;28;20105;-65
2022/08/09 08:25:47;;;;;;;3.63;1.98;;;18.60;99.90;;;;;;5070248;28;20052;-65
2022/08/09 08:28:14;;;;;;;4.75;2.10;;;18.70;99.90;;;;;;5099871;28;20044;-65
2022/08/09 08:30:40;;;;;;;2.63;2.13;;;18.80;99.90;;;;;;5102430;28;20081;-65
2022/08/09 08:33:06;;;;;;;3.40;2.20;;;18.90;99.90;;;;;;5102454;28;20040;-65
2022/08/09 08:35:32;;;;;;;5.18;2.20;;;18.90;99.90;;;;;;5099592;28;20072;-65
2022/08/09 08:37:58;;;;;;;4.30;2.00;;;18.90;99.90;;;;;;5101812;28;20078;-65
2022/08/09 08:40:23;;;;;;;3.70;2.10;;;18.90;99.90;;;;;;5103135;28;20040;-65
2022/08/09 08:42:49;;;;;;;2.90;2.25;;;18.90;99.90;;;;;;5093779;28;20071;-65
2022/08/09 08:45:21;;;;;;;3.28;1.92;;;19.00;99.90;;;;;;5100030;28;20045;-65
2022/08/09 08:47:46;;;;;;;3.58;2.33;;;19.10;99.90;;;;;;5102500;28;20055;-65
2022/08/09 08:50:15;;;;;;;3.60;2.10;;;19.20;99.90;;;;;;5100994;28;20055;-65
2022/08/09 08:52:41;;;;;;;2.88;1.92;;;19.30;99.90;;;;;;5103554;28;20048;-65
2022/08/09 08:55:07;;;;;;;4.25;1.90;;;19.50;99.90;;;;;;5101781;28;20054;-65
2022/08/09 08:57:33;;;;;;;5.22;2.33;;;19.50;99.90;;;;;;5101539;28;20040;-65
2022/08/09 08:59:59;;;;;;;2.38;1.50;;;19.60;99.90;;;;;;5100215;28;20044;-65
2022/08/09 09:02:27;;;;;;;2.80;1.73;;;19.60;99.90;;;;;;5097168;28;20110;-65
2022/08/09 09:04:56;;;;;;;1.85;1.67;;;19.60;99.90;;;;;;5101995;28;20032;-65
2022/08/09 09:07:23;;;;;;;1.45;1.35;;;19.60;99.90;;;;;;5095486;28;20132;-65
2022/08/09 09:09:50;;;;;;;2.15;1.50;;;19.60;99.90;;;;;;5087809;28;20035;-65
2022/08/09 09:12:19;;;;;;;3.28;1.70;;;19.60;99.90;;;;;;5100711;28;20111;-65
2022/08/09 09:14:45;;;;;;;4.75;2.17;;;19.60;99.90;;;;;;5099823;28;20044;-65
2022/08/09 09:17:11;;;;;;;2.08;1.67;;;19.60;99.90;;;;;;5102699;28;20048;-65
2022/08/09 09:19:37;;;;;;;2.72;1.92;;;19.50;99.90;;;;;;5083850;28;20068;-65
2022/08/09 09:22:10;;;;;;;2.03;1.40;;;19.50;99.90;;;;;;5100859;28;20032;-65
2022/08/09 09:24:43;;;;;;;1.90;1.70;;;19.50;99.90;;;;;;5097336;28;20108;-65
2022/08/09 09:27:13;;;;;;;2.85;1.73;;;19.60;99.90;;;;;;5092341;28;20059;-65
2022/08/09 09:29:40;;;;;;;;;;;19.70;99.90;;;;;;5100996;28;20048;-65
2022/08/09 09:32:07;;;;;;;1.73;1.30;;;19.80;99.90;;;;;;5100304;28;19924;-65
2022/08/09 09:34:33;;;;;;;1.67;1.40;;;19.90;99.90;;;;;;5100008;28;20051;-65
2022/08/09 09:37:00;;;;;;;4.55;1.70;;;20.00;99.90;;;;;;5093772;28;20100;-65
2022/08/09 09:39:27;;;;;;;3.88;1.85;;;20.10;99.90;;;;;;5091181;28;20063;-65
2022/08/09 09:41:54;;;;;;;3.58;2.20;;;20.30;99.90;;;;;;5103144;28;20047;-65
2022/08/09 09:44:29;;;;;;;1.65;1.48;;;20.30;99.90;;;;;;5097602;28;20508;-65
2022/08/09 09:47:03;;;;;;;1.95;1.70;;;20.40;99.90;;;;;;5090476;28;20138;-65
2022/08/09 09:49:29;;;;;;;2.97;1.80;;;20.50;99.90;;;;;;5094516;28;20127;-65
2022/08/09 09:52:04;;;;;;;2.35;1.75;;;20.60;99.90;;;;;;5097599;28;20071;-65
2022/08/09 09:54:46;;;;;;;3.63;2.05;;;20.70;99.90;;;;;;5100505;28;20047;-65
2022/08/09 09:57:20;;;;;;;2.28;2.03;;;20.70;99.90;;;;;;5093579;28;20055;-65
2022/08/09 09:59:47;;;;;;;4.25;2.05;;;20.70;99.90;;;;;;5099403;28;20071;-65
2022/08/09 10:02:13;;;;;;;2.00;1.50;;;20.70;99.90;;;;;;5095374;28;20052;-65
2022/08/09 10:04:41;;;;;;;2.25;1.70;;;20.80;99.90;;;;;;5080593;28;20041;-65
2022/08/09 10:07:24;;;;;;;1.95;1.30;;;20.90;99.90;;;;;;5093871;28;20073;-65
2022/08/09 10:09:54;;;;;;;1.35;1.25;;;20.90;99.90;;;;;;5069360;28;20128;-65
2022/08/09 10:12:37;;;;;;;2.22;1.50;;;20.90;99.90;;;;;;5097800;28;20484;-65
2022/08/09 10:15:14;;;;;;;3.25;1.60;;;21.00;99.90;;;;;;5102235;28;20044;-65
2022/08/09 10:17:46;;;;;;;1.83;1.30;;;21.00;99.90;;;;;;5101999;28;20489;-65
2022/08/09 10:20:20;;;;;;;2.03;1.80;;;21.00;99.90;;;;;;5099768;28;20067;-65
2022/08/09 10:22:48;;;;;;;2.45;1.30;;;21.20;99.90;;;;;;5100327;28;20135;-65
2022/08/09 10:25:14;;;;;;;2.22;1.63;;;21.20;99.90;;;;;;5102157;28;20040;-65
2022/08/09 10:27:42;;;;;;;1.85;1.50;;;21.20;99.90;;;;;;5098470;28;20077;-65
2022/08/09 10:30:09;;;;;;;3.28;1.70;;;21.30;99.90;;;;;;5095943;28;20136;-65
2022/08/09 10:32:35;;;;;;;3.95;1.73;;;21.20;99.90;;;;;;5098771;28;20051;-65
2022/08/09 10:35:02;;;;;;;4.05;1.50;;;21.30;99.90;;;;;;5097035;28;20100;-65
2022/08/09 10:37:28;;;;;;;2.33;1.30;;;21.30;99.90;;;;;;5102361;28;20127;-65
2022/08/09 10:39:54;;;;;;;1.98;1.60;;;21.20;99.90;;;;;;5099803;28;20032;-65
2022/08/09 10:42:21;;;;;;;1.63;1.50;;;21.20;99.90;;;;;;5098221;28;20044;-65
2022/08/09 10:44:59;;;;;;;2.17;1.85;;;21.30;99.90;;;;;;5102948;28;20056;-65
2022/08/09 10:47:43;;;;;;;3.35;1.75;;;21.40;99.90;;;;;;5099195;28;20048;-65
2022/08/09 10:53:31;;;;;;;1.50;1.35;;;21.60;99.90;;;;;;5103631;28;20059;-65
2022/08/09 10:56:22;;;;;;;2.60;1.33;;;21.70;99.90;;;;;;5104591;28;20052;-65
2022/08/09 10:58:49;;;;;;;3.22;1.45;;;21.70;99.90;;;;;;5105098;28;20107;-65
2022/08/09 11:01:30;;;;;;;1.40;1.30;;;21.80;99.90;;;;;;5102966;28;20487;-65
2022/08/09 11:04:11;;;;;;;3.08;1.38;;;21.90;99.90;;;;;;5094792;28;20032;-65
2022/08/09 11:06:38;;;;;;;1.50;1.40;;;22.00;99.90;;;;;;5099656;28;20135;-65
2022/08/09 11:09:06;;;;;;;2.88;1.10;;;22.00;99.90;;;;;;5092675;28;20064;-65
2022/08/09 11:11:54;;;;;;;2.15;1.38;;;22.10;99.90;;;;;;5100403;28;20053;-65
2022/08/09 11:14:46;;;;;;;1.92;1.02;;;22.10;99.90;;;;;;5091648;28;20040;-65
2022/08/09 11:17:14;;;;;;;1.63;1.40;;;22.20;99.90;;;;;;5094666;28;20039;-65
2022/08/09 11:19:53;;;;;;;2.75;1.27;;;22.30;99.90;;;;;;5104682;28;20495;-65
2022/08/09 11:22:46;;;;;;;2.92;1.38;;;22.30;99.90;;;;;;5099406;28;20126;-65
2022/08/09 11:25:35;;;;;;;19.13;2.30;;;22.40;99.90;;;;;;5102855;28;20044;-65
2022/08/09 11:28:21;;;;;;;2.25;1.35;;;22.40;99.90;;;;;;5087992;28;20057;-65
2022/08/09 11:30:47;;;;;;;3.35;1.42;;;22.50;99.90;;;;;;5103186;28;20113;-65
2022/08/09 11:33:15;;;;;;;1.40;1.20;;;22.60;99.90;;;;;;5101550;28;20048;-65
2022/08/09 11:35:46;;;;;;;1.77;1.40;;;22.70;99.90;;;;;;5105145;28;20048;-65
2022/08/09 11:38:21;;;;;;;2.78;1.20;;;22.70;99.90;;;;;;5102555;28;20079;-65
2022/08/09 11:40:48;;;;;;;1.50;1.20;;;22.80;99.90;;;;;;5104565;28;20051;-65
2022/08/09 11:43:15;;;;;;;1.20;1.10;;;22.80;99.90;;;;;;5094357;28;20033;-65
2022/08/09 11:45:56;;;;;;;2.22;1.40;;;22.80;99.90;;;;;;5091288;28;20581;-65
2022/08/09 11:48:26;;;;;;;2.65;1.25;;;22.90;99.90;;;;;;5100919;28;20457;-65
2022/08/09 11:51:02;;;;;;;2.38;1.02;;;23.00;99.90;;;;;;5095112;28;20108;-65
2022/08/09 11:53:36;;;;;;;2.00;1.40;;;23.10;99.90;;;;;;5105189;28;20071;-65
2022/08/09 11:56:13;;;;;;;2.17;1.20;;;23.10;99.90;;;;;;5102035;28;20093;-65
2022/08/09 11:58:39;;;;;;;2.33;1.40;;;23.20;99.90;;;;;;5095253;28;20039;-65
2022/08/09 12:01:05;;;;;;;2.00;1.10;;;23.30;99.90;;;;;;5094470;28;20052;-65
2022/08/09 12:03:31;;;;;;;1.92;1.10;;;23.40;99.90;;;;;;5104425;28;20040;-65
2022/08/09 12:05:59;;;;;;;2.05;1.10;;;23.50;99.90;;;;;;5102767;28;20052;-65
2022/08/09 12:08:27;;;;;;;1.23;1.10;;;23.50;99.90;;;;;;5103248;28;20048;-65
2022/08/09 12:10:55;;;;;;;3.03;1.20;;;23.60;99.90;;;;;;5103144;28;20078;-65
2022/08/09 12:13:44;;;;;;;2.67;1.23;;;23.60;99.90;;;;;;5090531;28;20048;-65
2022/08/09 12:16:17;;;;;;;1.55;1.15;;;23.60;99.90;;;;;;5103125;28;20049;-65
2022/08/09 12:18:45;;;;;;;1.77;1.00;;;23.70;99.90;;;;;;5104057;28;20082;-65
2022/08/09 12:21:11;;;;;;;2.53;1.00;;;23.70;99.90;;;;;;5100507;28;20135;-65
2022/08/09 12:23:43;;;;;;;1.95;1.55;;;23.70;99.90;;;;;;5103676;28;20087;-65
2022/08/09 12:26:09;;;;;;;1.75;1.30;;;23.80;99.90;;;;;;5104808;28;20048;-65
2022/08/09 12:28:38;;;;;;;6.35;1.55;;;24.00;99.90;;;;;;5103374;28;20066;-65
2022/08/09 12:31:19;;;;;;;1.42;1.10;;;24.00;99.90;;;;;;5082463;28;20386;-65
2022/08/09 12:33:45;;;;;;;0.95;0.90;;;24.20;99.90;;;;;;5102924;28;20068;-65
2022/08/09 12:36:11;;;;;;;1.27;1.17;;;24.20;99.90;;;;;;5097709;28;20084;-65
2022/08/09 12:38:37;;;;;;;2.05;1.27;;;24.30;99.90;;;;;;5104584;28;20096;-65
2022/08/09 12:41:03;;;;;;;3.00;1.10;;;24.40;99.90;;;;;;5103500;28;20465;-65
2022/08/09 12:43:29;;;;;;;3.70;0.93;;;24.40;99.90;;;;;;5101885;28;20448;-65
2022/08/09 12:45:57;;;;;;;1.05;1.00;;;24.40;99.90;;;;;;5094399;28;20083;-65
2022/08/09 12:48:23;;;;;;;1.15;0.90;;;24.50;99.90;;;;;;5101008;28;20124;-65
2022/08/09 12:50:50;;;;;;;1.25;1.10;;;24.50;99.90;;;;;;5104045;28;20101;-65
2022/08/09 12:53:29;;;;;;;2.08;1.00;;;24.50;99.90;;;;;;5102723;28;20039;-65